Stardust — WDG8792 — position and weather

sailwx.info

Track history (hours):
 
Tides and Currents Weather Stations Pressure Air Temp Water Temp Dewpoint Dewpoint Depression Visibility Wind Speed Wind Dir Waves Ship Positions

Stardust

Owner: Harley Marine Services, Inc, Seattle, WA. More information available from US FCC via Universal Licensing System and Coast Guard Vessel Documentation Center.

Last reported at 2017-Dec-11 14:16 UTC. Time now 2017-Dec-12 20:01 UTC.
Position N 29°45' W 095°06'.

Length 23 m; draft 2 m.

Type: Towing. MMSI: 367581120.

Date/timePositionNaut miles runAvg speedWind from/ knotsBaromVisibWave heightAir tempDewpointWater temp
2017-Dec-11 14:16N 29°45' W 095°06'0 0.0
2017-Dec-11 13:57N 29°45' W 095°06'0 0.0
2017-Dec-11 13:30N 29°45' W 095°06'0 0.0
2017-Dec-11 09:31N 29°45' W 095°06'0 0.0
2017-Dec-11 09:30N 29°45' W 095°06'0 0.2
2017-Dec-11 08:57N 29°45' W 095°06'0 0.3
2017-Dec-11 08:30N 29°45' W 095°06'0 0.0
2017-Dec-11 08:00N 29°45' W 095°06'0 0.0
2017-Dec-11 07:30N 29°45' W 095°06'0 0.0
2017-Dec-11 07:00N 29°45' W 095°06'0 0.0
2017-Dec-11 06:30N 29°45' W 095°06'0 0.0
2017-Dec-11 06:00N 29°45' W 095°06'0 0.0
2017-Dec-11 05:30N 29°45' W 095°06'0 0.0
2017-Dec-11 05:00N 29°45' W 095°06'0 0.0
2017-Dec-11 04:30N 29°45' W 095°06'0 0.0
2017-Dec-11 04:00N 29°45' W 095°06'0 0.0
2017-Dec-11 03:30N 29°45' W 095°06'0 0.0
2017-Dec-11 03:00N 29°45' W 095°06'0 0.0
2017-Dec-11 02:30N 29°45' W 095°06'0 0.0
2017-Dec-11 01:59N 29°45' W 095°06'0 0.0
2017-Dec-11 01:30N 29°45' W 095°06'0 0.0
2017-Dec-11 01:00N 29°45' W 095°06'0 0.0
2017-Dec-11 00:30N 29°45' W 095°06'0 0.0
2017-Dec-11 00:00N 29°45' W 095°06'0 0.0
2017-Dec-10 23:30N 29°45' W 095°06'0 0.0
2017-Dec-10 23:00N 29°45' W 095°06'0 0.1
2017-Dec-10 22:30N 29°45' W 095°06'1 0.2
2017-Dec-10 15:29N 29°44' W 095°08'0 0.0
2017-Dec-10 14:58N 29°44' W 095°08'0 0.0
2017-Dec-10 14:30N 29°44' W 095°08'0 0.0
2017-Dec-10 13:58N 29°44' W 095°08'0 0.0
2017-Dec-10 13:13N 29°44' W 095°08'0 0.0
2017-Dec-10 13:00N 29°44' W 095°08'0 0.0
2017-Dec-10 12:30N 29°44' W 095°08'0 0.0
2017-Dec-10 11:57N 29°44' W 095°08'0 0.0
2017-Dec-10 11:28N 29°44' W 095°08'0 0.0
2017-Dec-10 10:59N 29°44' W 095°08'0 0.0
2017-Dec-10 10:30N 29°44' W 095°08'0 0.0
2017-Dec-10 10:00N 29°44' W 095°08'0 0.0
2017-Dec-10 09:28N 29°44' W 095°08'0 0.0
2017-Dec-10 08:54N 29°44' W 095°08'0 0.4
2017-Dec-10 08:30N 29°44' W 095°08'1 1.2
2017-Dec-10 07:59N 29°44' W 095°07'2 2.7
2017-Dec-10 07:22N 29°45' W 095°06'1 3.6
2017-Dec-10 07:00N 29°45' W 095°04'2 4.5
2017-Dec-10 06:30N 29°44' W 095°02'2 4.9
2017-Dec-10 06:00N 29°42' W 095°00'3 6.2
2017-Dec-10 05:30N 29°40' W 094°58'3 6.8
2017-Dec-10 05:00N 29°36' W 094°57'4 7.0
2017-Dec-10 04:30N 29°33' W 094°55'4 7.2
2017-Dec-10 04:00N 29°30' W 094°52'8 0.5
2017-Dec-09 11:49N 29°23' W 094°51'8 4.2
2017-Dec-09 09:47N 29°31' W 094°53'2 6.1
2017-Dec-09 09:29N 29°32' W 094°54'3 6.2
2017-Dec-09 09:00N 29°35' W 094°56'3 5.2
2017-Dec-09 08:30N 29°37' W 094°58'2 4.0
2017-Dec-09 08:00N 29°37' W 095°00'0 0.0
2017-Dec-09 07:30N 29°37' W 095°00'0 0.0
2017-Dec-09 07:00N 29°37' W 095°00'0 0.0
2017-Dec-09 06:30N 29°37' W 095°00'0 0.0
2017-Dec-09 06:00N 29°37' W 095°00'0 0.0
2017-Dec-09 05:30N 29°37' W 095°00'0 0.0
2017-Dec-09 05:00N 29°37' W 095°00'0 0.0
2017-Dec-09 04:30N 29°37' W 095°00'0 0.0
2017-Dec-09 04:00N 29°37' W 095°00'0 0.5
2017-Dec-09 03:30N 29°37' W 095°01'2 3.4
2017-Dec-09 03:00N 29°37' W 094°59'3 5.5
2017-Dec-09 02:30N 29°35' W 094°56'2 4.9
2017-Dec-09 02:00N 29°33' W 094°55'2 0.0
2017-Dec-07 08:07N 29°32' W 094°54'1 5.2
2017-Dec-07 07:57N 29°33' W 094°54'2 5.2
2017-Dec-07 07:30N 29°34' W 094°56'3 5.4
2017-Dec-07 07:00N 29°37' W 094°57'3 5.6
2017-Dec-07 06:30N 29°39' W 094°58'3 5.9
2017-Dec-07 06:00N 29°42' W 094°60'3 5.3
2017-Dec-07 05:30N 29°44' W 095°02'  
2017-Dec-03 11:09N 29°21' W 094°44'0 0.0
2017-Dec-03 07:21N 29°21' W 094°45'0 0.0
2017-Dec-03 04:37N 29°21' W 094°45'0 0.2
2017-Dec-03 04:30N 29°21' W 094°45'1 1.8
2017-Dec-03 04:00N 29°21' W 094°46'1 1.3
2017-Dec-03 03:30N 29°21' W 094°46'13 5.3
2017-Dec-03 01:05N 29°32' W 094°54'1 5.6
2017-Dec-03 00:55N 29°33' W 094°54'2 5.3
2017-Dec-03 00:30N 29°35' W 094°56'3 5.9
2017-Dec-03 00:00N 29°37' W 094°58'3 5.7
2017-Dec-02 23:30N 29°40' W 094°59'3 5.3
2017-Dec-02 23:00N 29°42' W 095°00'3 5.0
2017-Dec-02 22:30N 29°44' W 095°02'4 3.1
2017-Dec-02 21:20N 29°44' W 095°07'2 5.3
2017-Dec-02 21:00N 29°44' W 095°09'3 5.9
2017-Dec-02 20:30N 29°44' W 095°12'3 0.6
2017-Dec-02 15:58N 29°43' W 095°15'0 0.2
2017-Dec-02 15:30N 29°43' W 095°15'1 2.6
2017-Dec-02 15:00N 29°43' W 095°16'0 0.6
2017-Dec-02 14:31N 29°44' W 095°16'0 0.0
2017-Dec-02 14:00N 29°44' W 095°16'0 0.0
2017-Dec-02 12:10N 29°44' W 095°16'0 0.0
2017-Dec-02 12:00N 29°44' W 095°16'0 0.2
2017-Dec-02 11:28N 29°44' W 095°16'0 0.5
2017-Dec-02 10:51N 29°44' W 095°16'0 0.0
2017-Dec-02 10:23N 29°44' W 095°16'0 0.0
2017-Dec-02 10:00N 29°44' W 095°16'0 0.0
2017-Dec-02 09:29N 29°44' W 095°16'0 0.0
2017-Dec-02 08:58N 29°44' W 095°16'0 0.0
2017-Dec-02 08:30N 29°44' W 095°16'0 0.4
2017-Dec-02 08:00N 29°43' W 095°16'2 3.8
2017-Dec-02 07:30N 29°43' W 095°14'3 5.5
2017-Dec-02 06:56N 29°45' W 095°11'3 5.8
2017-Dec-02 06:27N 29°44' W 095°07'3 5.7
2017-Dec-02 06:00N 29°46' W 095°05'3 5.0
2017-Dec-02 05:30N 29°44' W 095°03'0 0.0
2017-Dec-01 18:45N 29°44' W 095°03'0 0.3
2017-Dec-01 18:28N 29°44' W 095°03'0 0.2
2017-Dec-01 17:59N 29°44' W 095°03'0 0.0
2017-Dec-01 17:29N 29°44' W 095°03'0 0.0
2017-Dec-01 17:00N 29°44' W 095°03'0 0.0
2017-Dec-01 16:30N 29°44' W 095°03'0 0.0
2017-Dec-01 16:00N 29°44' W 095°03'0 0.0
2017-Dec-01 15:30N 29°44' W 095°03'0 0.2
2017-Dec-01 14:58N 29°44' W 095°03'0 0.2
2017-Dec-01 14:30N 29°44' W 095°03'  
Track history (hours):
 
Tides and Currents Weather Stations Pressure Air Temp Water Temp Dewpoint Dewpoint Depression Visibility Wind Speed Wind Dir Waves Ship Positions

Stardust

Owner: Harley Marine Services, Inc, Seattle, WA. More information available from US FCC via Universal Licensing System and Coast Guard Vessel Documentation Center.

Last reported at 2017-Dec-11 14:16 UTC. Time now 2017-Dec-12 20:01 UTC.
Position N 29°45' W 095°06'.

Length 23 m; draft 2 m.

Type: Towing. MMSI: 367581120.

Date/timePositionNaut miles runAvg speedWind from/ knotsBaromVisibWave heightAir tempDewpointWater temp
2017-Dec-11 14:16N 29°45' W 095°06'0 0.0
2017-Dec-11 13:57N 29°45' W 095°06'0 0.0
2017-Dec-11 13:30N 29°45' W 095°06'0 0.0
2017-Dec-11 09:31N 29°45' W 095°06'0 0.0
2017-Dec-11 09:30N 29°45' W 095°06'0 0.2
2017-Dec-11 08:57N 29°45' W 095°06'0 0.3
2017-Dec-11 08:30N 29°45' W 095°06'0 0.0
2017-Dec-11 08:00N 29°45' W 095°06'0 0.0
2017-Dec-11 07:30N 29°45' W 095°06'0 0.0
2017-Dec-11 07:00N 29°45' W 095°06'0 0.0
2017-Dec-11 06:30N 29°45' W 095°06'0 0.0
2017-Dec-11 06:00N 29°45' W 095°06'0 0.0
2017-Dec-11 05:30N 29°45' W 095°06'0 0.0
2017-Dec-11 05:00N 29°45' W 095°06'0 0.0
2017-Dec-11 04:30N 29°45' W 095°06'0 0.0
2017-Dec-11 04:00N 29°45' W 095°06'0 0.0
2017-Dec-11 03:30N 29°45' W 095°06'0 0.0
2017-Dec-11 03:00N 29°45' W 095°06'0 0.0
2017-Dec-11 02:30N 29°45' W 095°06'0 0.0
2017-Dec-11 01:59N 29°45' W 095°06'0 0.0
2017-Dec-11 01:30N 29°45' W 095°06'0 0.0
2017-Dec-11 01:00N 29°45' W 095°06'0 0.0
2017-Dec-11 00:30N 29°45' W 095°06'0 0.0
2017-Dec-11 00:00N 29°45' W 095°06'0 0.0
2017-Dec-10 23:30N 29°45' W 095°06'0 0.0
2017-Dec-10 23:00N 29°45' W 095°06'0 0.1
2017-Dec-10 22:30N 29°45' W 095°06'1 0.2
2017-Dec-10 15:29N 29°44' W 095°08'0 0.0
2017-Dec-10 14:58N 29°44' W 095°08'0 0.0
2017-Dec-10 14:30N 29°44' W 095°08'0 0.0
2017-Dec-10 13:58N 29°44' W 095°08'0 0.0
2017-Dec-10 13:13N 29°44' W 095°08'0 0.0
2017-Dec-10 13:00N 29°44' W 095°08'0 0.0
2017-Dec-10 12:30N 29°44' W 095°08'0 0.0
2017-Dec-10 11:57N 29°44' W 095°08'0 0.0
2017-Dec-10 11:28N 29°44' W 095°08'0 0.0
2017-Dec-10 10:59N 29°44' W 095°08'0 0.0
2017-Dec-10 10:30N 29°44' W 095°08'0 0.0
2017-Dec-10 10:00N 29°44' W 095°08'0 0.0
2017-Dec-10 09:28N 29°44' W 095°08'0 0.0
2017-Dec-10 08:54N 29°44' W 095°08'0 0.4
2017-Dec-10 08:30N 29°44' W 095°08'1 1.2
2017-Dec-10 07:59N 29°44' W 095°07'2 2.7
2017-Dec-10 07:22N 29°45' W 095°06'1 3.6
2017-Dec-10 07:00N 29°45' W 095°04'2 4.5
2017-Dec-10 06:30N 29°44' W 095°02'2 4.9
2017-Dec-10 06:00N 29°42' W 095°00'3 6.2
2017-Dec-10 05:30N 29°40' W 094°58'3 6.8
2017-Dec-10 05:00N 29°36' W 094°57'4 7.0
2017-Dec-10 04:30N 29°33' W 094°55'4 7.2
2017-Dec-10 04:00N 29°30' W 094°52'8 0.5
2017-Dec-09 11:49N 29°23' W 094°51'8 4.2
2017-Dec-09 09:47N 29°31' W 094°53'2 6.1
2017-Dec-09 09:29N 29°32' W 094°54'3 6.2
2017-Dec-09 09:00N 29°35' W 094°56'3 5.2
2017-Dec-09 08:30N 29°37' W 094°58'2 4.0
2017-Dec-09 08:00N 29°37' W 095°00'0 0.0
2017-Dec-09 07:30N 29°37' W 095°00'0 0.0
2017-Dec-09 07:00N 29°37' W 095°00'0 0.0
2017-Dec-09 06:30N 29°37' W 095°00'0 0.0
2017-Dec-09 06:00N 29°37' W 095°00'0 0.0
2017-Dec-09 05:30N 29°37' W 095°00'0 0.0
2017-Dec-09 05:00N 29°37' W 095°00'0 0.0
2017-Dec-09 04:30N 29°37' W 095°00'0 0.0
2017-Dec-09 04:00N 29°37' W 095°00'0 0.5
2017-Dec-09 03:30N 29°37' W 095°01'2 3.4
2017-Dec-09 03:00N 29°37' W 094°59'3 5.5
2017-Dec-09 02:30N 29°35' W 094°56'2 4.9
2017-Dec-09 02:00N 29°33' W 094°55'2 0.0
2017-Dec-07 08:07N 29°32' W 094°54'1 5.2
2017-Dec-07 07:57N 29°33' W 094°54'2 5.2
2017-Dec-07 07:30N 29°34' W 094°56'3 5.4
2017-Dec-07 07:00N 29°37' W 094°57'3 5.6
2017-Dec-07 06:30N 29°39' W 094°58'3 5.9
2017-Dec-07 06:00N 29°42' W 094°60'3 5.3
2017-Dec-07 05:30N 29°44' W 095°02'  
2017-Dec-03 11:09N 29°21' W 094°44'0 0.0
2017-Dec-03 07:21N 29°21' W 094°45'0 0.0
2017-Dec-03 04:37N 29°21' W 094°45'0 0.2
2017-Dec-03 04:30N 29°21' W 094°45'1 1.8
2017-Dec-03 04:00N 29°21' W 094°46'1 1.3
2017-Dec-03 03:30N 29°21' W 094°46'13 5.3
2017-Dec-03 01:05N 29°32' W 094°54'1 5.6
2017-Dec-03 00:55N 29°33' W 094°54'2 5.3
2017-Dec-03 00:30N 29°35' W 094°56'3 5.9
2017-Dec-03 00:00N 29°37' W 094°58'3 5.7
2017-Dec-02 23:30N 29°40' W 094°59'3 5.3
2017-Dec-02 23:00N 29°42' W 095°00'3 5.0
2017-Dec-02 22:30N 29°44' W 095°02'4 3.1
2017-Dec-02 21:20N 29°44' W 095°07'2 5.3
2017-Dec-02 21:00N 29°44' W 095°09'3 5.9
2017-Dec-02 20:30N 29°44' W 095°12'3 0.6
2017-Dec-02 15:58N 29°43' W 095°15'0 0.2
2017-Dec-02 15:30N 29°43' W 095°15'1 2.6
2017-Dec-02 15:00N 29°43' W 095°16'0 0.6
2017-Dec-02 14:31N 29°44' W 095°16'0 0.0
2017-Dec-02 14:00N 29°44' W 095°16'0 0.0
2017-Dec-02 12:10N 29°44' W 095°16'0 0.0
2017-Dec-02 12:00N 29°44' W 095°16'0 0.2
2017-Dec-02 11:28N 29°44' W 095°16'0 0.5
2017-Dec-02 10:51N 29°44' W 095°16'0 0.0
2017-Dec-02 10:23N 29°44' W 095°16'0 0.0
2017-Dec-02 10:00N 29°44' W 095°16'0 0.0
2017-Dec-02 09:29N 29°44' W 095°16'0 0.0
2017-Dec-02 08:58N 29°44' W 095°16'0 0.0
2017-Dec-02 08:30N 29°44' W 095°16'0 0.4
2017-Dec-02 08:00N 29°43' W 095°16'2 3.8
2017-Dec-02 07:30N 29°43' W 095°14'3 5.5
2017-Dec-02 06:56N 29°45' W 095°11'3 5.8
2017-Dec-02 06:27N 29°44' W 095°07'3 5.7
2017-Dec-02 06:00N 29°46' W 095°05'3 5.0
2017-Dec-02 05:30N 29°44' W 095°03'0 0.0
2017-Dec-01 18:45N 29°44' W 095°03'0 0.3
2017-Dec-01 18:28N 29°44' W 095°03'0 0.2
2017-Dec-01 17:59N 29°44' W 095°03'0 0.0
2017-Dec-01 17:29N 29°44' W 095°03'0 0.0
2017-Dec-01 17:00N 29°44' W 095°03'0 0.0
2017-Dec-01 16:30N 29°44' W 095°03'0 0.0
2017-Dec-01 16:00N 29°44' W 095°03'0 0.0
2017-Dec-01 15:30N 29°44' W 095°03'0 0.2
2017-Dec-01 14:58N 29°44' W 095°03'0 0.2
2017-Dec-01 14:30N 29°44' W 095°03'  

Dump ship's entire track history